Time;durP1;ratioP1;P1;durP2;ratioP2;P2;SDS_P1;SDS_P2;PMS_P1;PMS_P2;Temp;Humidity;BMP_temperature;BMP_pressure;BME280_temperature;BME280_humidity;BME280_pressure;Samples;Min_cycle;Max_cycle;Signal;HPM_P1;HPM_P2
2023/11/14 00:01:19;;;;;;;4.85;2.53;;;;;;;;;;6177626;23;20029;-62
2023/11/14 00:03:47;;;;;;;;;;;;;;;;;;6175296;23;20088;-52
2023/11/14 00:06:22;;;;;;;7.18;4.38;;;;;;;;;;6176900;23;19975;-56
2023/11/14 00:08:55;;;;;;;6.18;4.28;;;;;;;;;;6177203;23;20028;-56
2023/11/14 00:11:24;;;;;;;6.70;4.35;;;;;;;;;;6176374;23;20024;-56
2023/11/14 00:13:58;;;;;;;5.80;2.78;;;;;;;;;;6176276;23;20033;-55
2023/11/14 00:16:25;;;;;;;6.57;4.40;;;;;;;;;;6175845;23;20546;-54
2023/11/14 00:18:54;;;;;;;7.93;5.03;;;;;;;;;;6177238;23;20060;-56
2023/11/14 00:21:28;;;;;;;6.82;4.43;;;;;;;;;;6150703;23;20565;-62
2023/11/14 00:23:55;;;;;;;6.72;4.20;;;;;;;;;;6176522;23;20076;-62
2023/11/14 00:26:29;;;;;;;8.20;5.50;;;;;;;;;;6176740;23;20477;-62
2023/11/14 00:28:58;;;;;;;8.88;5.22;;;;;;;;;;6176361;23;20021;-62
2023/11/14 00:31:27;;;;;;;7.05;3.80;;;;;;;;;;6171538;23;20083;-62
2023/11/14 00:34:00;;;;;;;9.38;5.55;;;;;;;;;;6176813;23;20028;-62
2023/11/14 00:36:28;;;;;;;8.90;5.97;;;;;;;;;;6177385;23;20083;-62
2023/11/14 00:39:02;;;;;;;8.30;5.80;;;;;;;;;;6175808;23;20032;-62
2023/11/14 00:41:30;;;;;;;9.52;5.38;;;;;;;;;;6168614;23;20021;-62
2023/11/14 00:43:57;;;;;;;7.85;5.43;;;;;;;;;;6175851;23;20020;-62
2023/11/14 00:46:31;;;;;;;9.77;5.30;;;;;;;;;;6175223;23;20029;-62
2023/11/14 00:49:18;;;;;;;11.95;6.15;;;;;;;;;;6175482;23;20029;-62
2023/11/14 00:52:12;;;;;;;11.05;6.32;;;;;;;;;;6174651;23;20074;-62
2023/11/14 00:54:59;;;;;;;11.30;6.75;;;;;;;;;;6177260;23;20021;-61
2023/11/14 00:57:53;;;;;;;8.90;5.55;;;;;;;;;;6172584;23;20025;-62
2023/11/14 01:00:40;;;;;;;10.18;5.47;;;;;;;;;;6175915;23;20021;-51
2023/11/14 01:03:41;;;;;;;7.93;4.95;;;;;;;;;;6174706;23;20029;-56
2023/11/14 01:06:28;;;;;;;10.07;5.97;;;;;;;;;;6176521;23;20083;-51
2023/11/14 01:09:22;;;;;;;8.18;3.55;;;;;;;;;;6175431;23;20096;-56
2023/11/14 01:12:09;;;;;;;8.68;5.75;;;;;;;;;;6176756;23;20533;-53
2023/11/14 01:15:04;;;;;;;9.05;5.45;;;;;;;;;;6170719;23;20025;-60
2023/11/14 01:17:51;;;;;;;9.38;5.32;;;;;;;;;;6175245;23;20025;-67
2023/11/14 01:20:45;;;;;;;9.88;6.30;;;;;;;;;;6176032;23;20029;-67
2023/11/14 01:23:32;;;;;;;9.40;6.55;;;;;;;;;;6170889;23;20025;-67
2023/11/14 01:26:32;;;;;;;9.93;5.97;;;;;;;;;;6175532;23;20080;-67
2023/11/14 01:29:19;;;;;;;8.00;5.43;;;;;;;;;;6173768;23;20031;-67
2023/11/14 01:31:53;;;;;;;8.57;5.50;;;;;;;;;;6173068;23;20462;-67
2023/11/14 01:34:39;;;;;;;8.52;6.07;;;;;;;;;;6170816;23;20028;-67
2023/11/14 01:37:33;;;;;;;6.63;5.00;;;;;;;;;;6174368;23;20024;-61
2023/11/14 01:40:20;;;;;;;8.10;5.55;;;;;;;;;;6176560;23;20028;-61
2023/11/14 01:43:14;;;;;;;8.10;5.90;;;;;;;;;;6176068;23;20075;-61
2023/11/14 01:46:01;;;;;;;9.60;5.47;;;;;;;;;;6176909;23;20024;-62
2023/11/14 01:48:55;;;;;;;7.43;4.85;;;;;;;;;;6173818;23;20919;-61
2023/11/14 01:51:43;;;;;;;8.00;5.50;;;;;;;;;;6175310;23;20032;-54
2023/11/14 01:54:40;;;;;;;9.30;6.05;;;;;;;;;;6174351;23;20024;-59
2023/11/14 01:57:25;;;;;;;9.20;6.30;;;;;;;;;;6174519;23;20023;-58
2023/11/14 02:00:20;;;;;;;8.40;5.05;;;;;;;;;;6176150;23;20021;-59
2023/11/14 02:03:14;;;;;;;8.00;5.55;;;;;;;;;;6168848;23;20063;-56
2023/11/14 02:06:09;;;;;;;9.45;6.10;;;;;;;;;;6175789;23;20025;-58
2023/11/14 02:08:56;;;;;;;8.00;4.95;;;;;;;;;;6175944;23;20485;-58
2023/11/14 02:11:50;;;;;;;9.02;5.88;;;;;;;;;;6165289;23;20103;-61
2023/11/14 02:14:37;;;;;;;8.48;5.50;;;;;;;;;;6174053;23;20029;-54
2023/11/14 02:17:15;;;;;;;13.50;6.05;;;;;;;;;;6174400;23;20024;-54
2023/11/14 02:20:03;;;;;;;9.05;5.68;;;;;;;;;;6175719;23;20044;-55
2023/11/14 02:22:58;;;;;;;9.85;6.38;;;;;;;;;;6173367;23;20467;-52
2023/11/14 02:25:51;;;;;;;16.00;6.63;;;;;;;;;;6174773;23;20028;-54
2023/11/14 02:28:38;;;;;;;9.38;5.78;;;;;;;;;;6173557;23;20021;-61
2023/11/14 02:31:32;;;;;;;8.15;4.43;;;;;;;;;;6170812;23;20099;-61
2023/11/14 02:34:19;;;;;;;11.65;7.18;;;;;;;;;;6175185;23;20100;-60
2023/11/14 02:37:13;;;;;;;7.57;4.30;;;;;;;;;;6168071;23;20048;-61
2023/11/14 02:40:00;;;;;;;9.25;6.22;;;;;;;;;;6174697;23;20355;-61
2023/11/14 02:42:54;;;;;;;11.75;6.82;;;;;;;;;;6174098;23;20520;-61
2023/11/14 02:45:42;;;;;;;10.02;6.45;;;;;;;;;;6173171;23;20021;-61
2023/11/14 02:48:36;;;;;;;11.23;6.50;;;;;;;;;;6174355;23;20055;-51
2023/11/14 02:51:23;;;;;;;11.77;7.32;;;;;;;;;;6175155;23;20025;-61
2023/11/14 02:54:18;;;;;;;12.77;6.13;;;;;;;;;;6174357;23;20494;-60
2023/11/14 02:57:09;;;;;;;13.30;8.13;;;;;;;;;;6169261;23;20052;-61
2023/11/14 03:00:01;;;;;;;13.45;7.70;;;;;;;;;;6171753;23;20021;-60
2023/11/14 03:02:42;;;;;;;10.95;5.57;;;;;;;;;;6164559;23;20502;-60
2023/11/14 03:05:36;;;;;;;12.07;8.07;;;;;;;;;;6137075;23;20057;-60
2023/11/14 03:08:30;;;;;;;14.38;7.28;;;;;;;;;;6145071;23;20028;-59
2023/11/14 03:11:18;;;;;;;12.82;7.85;;;;;;;;;;6144416;23;20022;-59
2023/11/14 03:14:11;;;;;;;11.40;7.40;;;;;;;;;;6141944;23;20454;-61
2023/11/14 03:17:05;;;;;;;13.52;8.00;;;;;;;;;;6142776;23;20028;-59
2023/11/14 03:19:59;;;;;;;13.13;8.00;;;;;;;;;;6146373;23;20030;-56
2023/11/14 03:23:00;;;;;;;12.70;8.35;;;;;;;;;;6145980;23;20029;-58
2023/11/14 03:25:48;;;;;;;10.95;7.30;;;;;;;;;;6141032;23;20056;-65
2023/11/14 03:28:41;;;;;;;11.95;7.80;;;;;;;;;;6141908;23;20400;-59
2023/11/14 03:31:28;;;;;;;12.23;8.00;;;;;;;;;;6144414;23;20028;-59
2023/11/14 03:34:22;;;;;;;15.55;8.90;;;;;;;;;;6142262;23;20021;-59
2023/11/14 03:37:16;;;;;;;11.07;7.43;;;;;;;;;;6144169;23;20025;-59
2023/11/14 03:40:05;;;;;;;11.52;7.15;;;;;;;;;;6144529;23;20329;-59
2023/11/14 03:42:57;;;;;;;14.43;8.60;;;;;;;;;;6140668;23;20360;-58
2023/11/14 03:45:44;;;;;;;11.48;7.68;;;;;;;;;;6142916;23;20104;-66
2023/11/14 03:48:18;;;;;;;11.95;7.43;;;;;;;;;;6144044;23;20029;-66
2023/11/14 03:50:46;;;;;;;11.43;7.30;;;;;;;;;;6139369;23;20666;-66
2023/11/14 03:53:39;;;;;;;9.98;6.60;;;;;;;;;;6145087;23;20026;-66
2023/11/14 03:56:26;;;;;;;10.88;7.45;;;;;;;;;;6144696;23;20441;-66
2023/11/14 03:59:20;;;;;;;10.80;7.18;;;;;;;;;;6143971;23;20443;-66
2023/11/14 04:02:07;;;;;;;9.70;5.78;;;;;;;;;;6145085;23;20022;-61
2023/11/14 04:05:08;;;;;;;9.43;5.65;;;;;;;;;;6173979;23;20091;-50
2023/11/14 04:07:55;;;;;;;11.43;7.53;;;;;;;;;;6175045;23;20072;-51
2023/11/14 04:10:49;;;;;;;10.63;7.50;;;;;;;;;;6172017;23;20032;-53
2023/11/14 04:13:39;;;;;;;12.77;7.95;;;;;;;;;;6173187;23;20024;-51
2023/11/14 04:16:33;;;;;;;10.43;7.05;;;;;;;;;;6173774;23;20020;-54
2023/11/14 04:19:20;;;;;;;8.93;6.38;;;;;;;;;;6165308;23;20386;-49
2023/11/14 04:22:14;;;;;;;9.48;6.45;;;;;;;;;;6175244;23;20024;-59
2023/11/14 04:25:01;;;;;;;8.25;5.63;;;;;;;;;;6174426;23;20162;-59
2023/11/14 04:27:55;;;;;;;10.52;6.25;;;;;;;;;;6173883;23;20021;-59
2023/11/14 04:30:42;;;;;;;8.18;5.88;;;;;;;;;;6174376;23;20021;-59
2023/11/14 04:33:36;;;;;;;9.70;5.22;;;;;;;;;;6173139;23;20084;-59
2023/11/14 04:36:37;;;;;;;10.52;5.60;;;;;;;;;;6174598;23;20028;-58
2023/11/14 04:39:38;;;;;;;7.75;5.43;;;;;;;;;;6174897;23;20479;-60
2023/11/14 04:42:32;;;;;;;6.47;4.93;;;;;;;;;;6172758;23;20075;-61
2023/11/14 04:45:21;;;;;;;8.25;4.88;;;;;;;;;;6176367;23;20058;-60
2023/11/14 04:48:13;;;;;;;7.38;5.15;;;;;;;;;;6175677;23;20028;-61
2023/11/14 04:51:00;;;;;;;8.52;4.78;;;;;;;;;;6175329;23;20113;-61
2023/11/14 04:53:54;;;;;;;6.88;4.65;;;;;;;;;;6177589;23;20032;-61
2023/11/14 04:56:41;;;;;;;7.53;4.72;;;;;;;;;;6173973;23;20025;-61
2023/11/14 04:59:35;;;;;;;9.20;4.80;;;;;;;;;;6175065;23;20021;-57
2023/11/14 05:02:24;;;;;;;7.65;4.70;;;;;;;;;;6173724;23;20849;-59
2023/11/14 05:05:23;;;;;;;8.48;5.53;;;;;;;;;;6174596;23;20479;-58
2023/11/14 05:08:10;;;;;;;6.97;4.75;;;;;;;;;;6176049;23;20024;-59
2023/11/14 05:11:05;;;;;;;6.90;4.93;;;;;;;;;;6171441;23;20402;-59
2023/11/14 05:13:51;;;;;;;7.10;5.03;;;;;;;;;;6175399;23;20483;-62
2023/11/14 05:16:45;;;;;;;5.70;3.90;;;;;;;;;;6175930;23;20101;-61
2023/11/14 05:19:31;;;;;;;8.45;4.72;;;;;;;;;;6174338;23;20036;-60
2023/11/14 05:22:25;;;;;;;6.80;4.57;;;;;;;;;;6174639;23;20021;-61
2023/11/14 05:25:13;;;;;;;7.28;5.05;;;;;;;;;;6174862;23;20079;-61
2023/11/14 05:28:06;;;;;;;7.47;4.95;;;;;;;;;;6174237;23;20021;-61
2023/11/14 05:31:00;;;;;;;7.13;5.03;;;;;;;;;;6173518;23;20021;-61
2023/11/14 05:33:49;;;;;;;6.88;4.72;;;;;;;;;;6171954;23;20035;-61
2023/11/14 05:36:41;;;;;;;8.70;4.45;;;;;;;;;;6172851;23;20079;-59
2023/11/14 05:39:28;;;;;;;7.20;5.00;;;;;;;;;;6172290;23;20025;-59
2023/11/14 05:42:22;;;;;;;7.82;4.75;;;;;;;;;;6170889;23;20021;-61
2023/11/14 05:45:10;;;;;;;7.32;4.68;;;;;;;;;;6169881;23;20032;-60
2023/11/14 05:48:04;;;;;;;6.55;4.85;;;;;;;;;;6173349;23;20027;-60
2023/11/14 05:50:50;;;;;;;6.97;4.88;;;;;;;;;;6169820;23;20366;-62
2023/11/14 05:53:45;;;;;;;7.40;4.97;;;;;;;;;;6171969;23;20080;-61
2023/11/14 05:56:12;;;;;;;7.75;5.05;;;;;;;;;;6172894;23;20493;-62
2023/11/14 05:58:39;;;;;;;6.30;4.88;;;;;;;;;;6174945;23;20021;-61
2023/11/14 06:01:33;;;;;;;6.95;4.82;;;;;;;;;;6166214;23;20018;-61
2023/11/14 06:04:34;;;;;;;6.72;4.40;;;;;;;;;;6172959;23;20024;-61
2023/11/14 06:07:01;;;;;;;4.80;2.85;;;;;;;;;;6175047;23;20024;-61
2023/11/14 06:09:35;;;;;;;6.40;4.43;;;;;;;;;;6175286;23;20032;-48
2023/11/14 06:12:03;;;;;;;6.80;4.65;;;;;;;;;;6176681;23;20104;-61
2023/11/14 06:14:30;;;;;;;5.43;3.90;;;;;;;;;;6172807;23;20029;-61
2023/11/14 06:17:04;;;;;;;5.35;4.13;;;;;;;;;;6175982;23;20029;-61
2023/11/14 06:19:32;;;;;;;6.65;4.88;;;;;;;;;;6175711;23;20021;-61
2023/11/14 06:21:59;;;;;;;;;;;;;;;;;;6176069;23;20541;-61
2023/11/14 06:24:33;;;;;;;6.78;4.65;;;;;;;;;;6176126;23;19951;-61
2023/11/14 06:27:00;;;;;;;8.50;4.53;;;;;;;;;;6176388;23;20029;-53
2023/11/14 06:29:34;;;;;;;6.22;4.13;;;;;;;;;;6174614;23;20470;-61
2023/11/14 06:32:02;;;;;;;5.97;4.10;;;;;;;;;;6175206;23;20048;-61
2023/11/14 06:34:29;;;;;;;6.43;4.72;;;;;;;;;;6170834;23;20025;-61
2023/11/14 06:37:03;;;;;;;5.68;3.83;;;;;;;;;;6175032;23;20021;-62
2023/11/14 06:39:30;;;;;;;6.63;4.78;;;;;;;;;;6175110;23;20029;-61
2023/11/14 06:41:58;;;;;;;6.38;4.50;;;;;;;;;;6175512;23;20080;-61
2023/11/14 06:44:32;;;;;;;4.25;2.92;;;;;;;;;;6173827;23;20029;-61
2023/11/14 06:47:00;;;;;;;7.30;4.88;;;;;;;;;;6176381;23;20024;-59
2023/11/14 06:49:34;;;;;;;6.88;4.57;;;;;;;;;;6172559;23;20570;-59
2023/11/14 06:52:01;;;;;;;7.60;5.15;;;;;;;;;;6175795;23;20105;-58
2023/11/14 06:54:55;;;;;;;6.10;4.00;;;;;;;;;;6175428;23;20025;-60
2023/11/14 06:57:50;;;;;;;7.15;4.40;;;;;;;;;;6174272;23;20033;-60
2023/11/14 07:00:36;;;;;;;7.50;5.22;;;;;;;;;;6173883;23;20021;-58
2023/11/14 07:03:37;;;;;;;6.93;4.53;;;;;;;;;;6175114;23;20029;-59
2023/11/14 07:06:31;;;;;;;9.70;6.10;;;;;;;;;;6174076;23;20511;-59
2023/11/14 07:09:25;;;;;;;8.45;6.07;;;;;;;;;;6175274;23;20032;-58
2023/11/14 07:12:11;;;;;;;8.25;5.28;;;;;;;;;;6175469;23;20084;-59
2023/11/14 07:15:06;;;;;;;11.10;6.43;;;;;;;;;;6175781;23;20033;-59
2023/11/14 07:17:53;;;;;;;11.80;6.07;;;;;;;;;;6172733;23;20744;-59
2023/11/14 07:20:48;;;;;;;10.07;6.25;;;;;;;;;;6175939;23;20432;-59
2023/11/14 07:23:33;;;;;;;10.40;5.20;;;;;;;;;;6175404;23;20024;-59
2023/11/14 07:26:29;;;;;;;9.48;5.70;;;;;;;;;;6175641;23;20112;-59
2023/11/14 07:29:14;;;;;;;9.90;6.43;;;;;;;;;;6172202;23;20446;-59
2023/11/14 07:32:08;;;;;;;8.65;5.50;;;;;;;;;;6176128;23;20027;-61
2023/11/14 07:34:56;;;;;;;14.93;5.70;;;;;;;;;;6173117;23;20029;-59
2023/11/14 07:37:49;;;;;;;8.60;5.75;;;;;;;;;;6175880;23;20025;-59
2023/11/14 07:40:36;;;;;;;8.98;5.88;;;;;;;;;;6173579;23;20100;-57
2023/11/14 07:43:31;;;;;;;10.57;6.35;;;;;;;;;;6175778;23;20103;-61
2023/11/14 07:46:17;;;;;;;9.88;5.97;;;;;;;;;;6173462;23;20029;-62
2023/11/14 07:49:11;;;;;;;10.18;6.32;;;;;;;;;;6174366;23;20036;-61
2023/11/14 07:51:58;;;;;;;9.20;6.20;;;;;;;;;;6174261;23;20079;-61
2023/11/14 07:54:53;;;;;;;10.45;6.93;;;;;;;;;;6172164;23;20036;-61
2023/11/14 07:57:39;;;;;;;9.43;5.97;;;;;;;;;;6167041;23;20493;-61
2023/11/14 08:00:33;;;;;;;10.98;6.05;;;;;;;;;;6175462;23;20072;-61
2023/11/14 08:03:20;;;;;;;10.68;6.63;;;;;;;;;;6172002;23;20124;-54
2023/11/14 08:06:21;;;;;;;10.30;6.80;;;;;;;;;;6174953;23;20028;-52
2023/11/14 08:09:08;;;;;;;11.50;7.28;;;;;;;;;;6168262;23;20079;-53
2023/11/14 08:12:02;;;;;;;7.60;4.95;;;;;;;;;;6174644;23;20025;-52
2023/11/14 08:14:49;;;;;;;8.93;5.57;;;;;;;;;;6173082;23;20072;-51
2023/11/14 08:17:43;;;;;;;8.73;5.03;;;;;;;;;;6175588;23;20100;-67
2023/11/14 08:20:30;;;;;;;9.50;4.80;;;;;;;;;;6174027;23;20087;-61
2023/11/14 08:23:04;;;;;;;7.55;4.50;;;;;;;;;;6177602;23;20024;-61
2023/11/14 08:25:32;;;;;;;6.65;4.65;;;;;;;;;;6146284;23;20035;-61
2023/11/14 08:27:59;;;;;;;;;;;;;;;;;;6176793;23;20398;-61
2023/11/14 08:30:53;;;;;;;9.50;5.55;;;;;;;;;;6175498;23;20595;-61
2023/11/14 08:33:42;;;;;;;7.80;5.10;;;;;;;;;;6174646;23;20021;-61
2023/11/14 08:36:34;;;;;;;7.63;5.05;;;;;;;;;;6175854;23;20024;-61
2023/11/14 08:39:21;;;;;;;8.60;5.75;;;;;;;;;;6175302;23;20029;-67
2023/11/14 08:42:15;;;;;;;8.05;5.30;;;;;;;;;;6177403;23;20398;-67
2023/11/14 08:45:02;;;;;;;10.30;5.35;;;;;;;;;;6175623;23;20087;-67
2023/11/14 08:47:56;;;;;;;7.97;4.85;;;;;;;;;;6176667;23;20025;-67
2023/11/14 08:50:50;;;;;;;7.20;4.57;;;;;;;;;;6175652;23;20025;-67
2023/11/14 08:53:39;;;;;;;5.57;3.60;;;;;;;;;;6175073;23;20025;-59
2023/11/14 08:56:31;;;;;;;8.10;5.32;;;;;;;;;;6176510;23;20076;-61
2023/11/14 08:59:18;;;;;;;8.02;5.10;;;;;;;;;;6175567;23;20619;-62
2023/11/14 09:02:13;;;;;;;6.97;4.72;;;;;;;;;;6176856;23;20020;-61
2023/11/14 09:05:09;;;;;;;6.40;4.25;;;;;;;;;;6175016;23;20032;-61
2023/11/14 09:08:00;;;;;;;6.63;4.22;;;;;;;;;;6176843;23;20021;-63
2023/11/14 09:10:27;;;;;;;8.23;4.57;;;;;;;;;;6176901;23;20128;-62
2023/11/14 09:12:56;;;;;;;6.80;4.20;;;;;;;;;;6176762;23;20025;-67
2023/11/14 09:15:30;;;;;;;6.22;3.80;;;;;;;;;;6176542;23;20025;-60
2023/11/14 09:18:04;;;;;;;6.18;3.30;;;;;;;;;;6176633;23;20028;-60
2023/11/14 09:20:38;;;;;;;4.93;3.30;;;;;;;;;;6176271;23;20056;-60
2023/11/14 09:23:06;;;;;;;3.78;2.67;;;;;;;;;;6176382;23;20083;-60
2023/11/14 09:25:40;;;;;;;4.50;2.63;;;;;;;;;;6176298;23;20028;-61
2023/11/14 09:28:15;;;;;;;3.55;2.55;;;;;;;;;;6176736;23;20029;-59
2023/11/14 09:30:44;;;;;;;3.35;2.63;;;;;;;;;;6173167;23;20032;-56
2023/11/14 09:33:17;;;;;;;3.55;2.53;;;;;;;;;;6176550;23;20406;-61
2023/11/14 09:35:45;;;;;;;3.78;2.83;;;;;;;;;;6175933;23;20021;-67
2023/11/14 09:38:12;;;;;;;4.18;2.40;;;;;;;;;;6175093;23;20021;-67
2023/11/14 09:40:46;;;;;;;3.30;1.50;;;;;;;;;;6176326;23;20040;-67
2023/11/14 09:43:13;;;;;;;2.97;2.20;;;;;;;;;;6175746;23;20036;-68
2023/11/14 09:45:41;;;;;;;2.60;2.10;;;;;;;;;;6174060;23;20105;-67
2023/11/14 09:48:15;;;;;;;3.03;2.20;;;;;;;;;;6177729;23;20025;-68
2023/11/14 09:50:43;;;;;;;2.53;1.80;;;;;;;;;;6175298;23;20021;-60
2023/11/14 09:53:19;;;;;;;2.67;2.10;;;;;;;;;;6175695;23;20084;-53
2023/11/14 09:55:47;;;;;;;2.50;1.90;;;;;;;;;;6174830;23;20035;-54
2023/11/14 09:58:41;;;;;;;2.28;1.83;;;;;;;;;;6175562;23;20199;-52
2023/11/14 10:01:35;;;;;;;2.92;1.88;;;;;;;;;;6175670;23;20534;-51
2023/11/14 10:04:29;;;;;;;2.60;1.70;;;;;;;;;;6173546;23;20091;-53
2023/11/14 10:07:36;;;;;;;3.67;2.08;;;;;;;;;;6175505;23;20131;-60
2023/11/14 10:10:23;;;;;;;2.67;1.80;;;;;;;;;;6174936;23;20791;-66
2023/11/14 10:13:20;;;;;;;3.15;2.33;;;;;;;;;;6176639;23;20036;-66
2023/11/14 10:16:18;;;;;;;3.72;1.95;;;;;;;;;;6175081;23;20395;-66
2023/11/14 10:19:19;;;;;;;2.40;2.03;;;;;;;;;;6176413;23;20075;-66
2023/11/14 10:22:07;;;;;;;1.73;1.60;;;;;;;;;;6176251;23;20084;-67
2023/11/14 10:25:01;;;;;;;3.08;2.10;;;;;;;;;;6175438;23;20048;-66
2023/11/14 10:27:55;;;;;;;1.83;1.57;;;;;;;;;;6174362;23;20475;-60
2023/11/14 10:30:56;;;;;;;1.48;1.38;;;;;;;;;;6174392;23;20021;-51
2023/11/14 10:33:43;;;;;;;2.67;1.50;;;;;;;;;;6173767;23;20021;-53
2023/11/14 10:36:46;;;;;;;1.83;1.42;;;;;;;;;;6175086;23;20021;-46
2023/11/14 10:39:34;;;;;;;1.60;1.40;;;;;;;;;;6174042;23;20033;-50
2023/11/14 10:42:27;;;;;;;2.05;1.70;;;;;;;;;;6175541;23;20398;-51
2023/11/14 10:44:59;;;;;;;1.70;1.33;;;;;;;;;;6174226;23;20036;-60
2023/11/14 10:47:52;;;;;;;3.67;1.48;;;;;;;;;;6175087;23;20083;-51
2023/11/14 10:50:39;;;;;;;1.83;1.60;;;;;;;;;;6175265;23;20025;-52
2023/11/14 10:53:33;;;;;;;1.73;1.52;;;;;;;;;;6175266;23;20028;-52
2023/11/14 10:56:21;;;;;;;1.65;1.38;;;;;;;;;;6175547;23;20029;-49
2023/11/14 10:59:25;;;;;;;1.80;1.50;;;;;;;;;;6174054;23;20052;-53
2023/11/14 11:02:12;;;;;;;2.50;1.52;;;;;;;;;;6176207;23;20029;-52
2023/11/14 11:05:20;;;;;;;1.98;1.40;;;;;;;;;;6174336;23;20029;-61
2023/11/14 11:08:14;;;;;;;2.38;1.55;;;;;;;;;;6175380;23;20052;-52
2023/11/14 11:11:09;;;;;;;1.83;1.50;;;;;;;;;;6175646;23;20025;-49
2023/11/14 11:13:57;;;;;;;3.55;1.50;;;;;;;;;;6174875;23;20024;-50
2023/11/14 11:16:52;;;;;;;1.50;1.40;;;;;;;;;;6173993;23;20029;-54
2023/11/14 11:19:51;;;;;;;2.08;1.58;;;;;;;;;;6173843;23;20021;-48
2023/11/14 11:23:04;;;;;;;3.70;1.58;;;;;;;;;;6175485;23;20028;-60
2023/11/14 11:25:31;;;;;;;1.80;1.70;;;;;;;;;;6173988;23;20025;-50
2023/11/14 11:28:28;;;;;;;2.00;1.58;;;;;;;;;;6172816;23;20122;-53
2023/11/14 11:31:16;;;;;;;2.55;1.67;;;;;;;;;;6175504;23;20021;-53
2023/11/14 11:34:28;;;;;;;1.75;1.48;;;;;;;;;;6174936;23;20071;-54
2023/11/14 11:37:33;;;;;;;1.17;1.08;;;;;;;;;;6175500;23;20525;-50
2023/11/14 11:40:28;;;;;;;1.50;1.23;;;;;;;;;;6174027;23;20498;-63
2023/11/14 11:43:21;;;;;;;1.83;1.40;;;;;;;;;;6176434;23;20073;-58
2023/11/14 11:46:29;;;;;;;3.83;1.50;;;;;;;;;;6172623;23;20017;-60
2023/11/14 11:49:27;;;;;;;1.10;0.90;;;;;;;;;;6175187;23;20027;-60
2023/11/14 11:52:22;;;;;;;1.33;0.93;;;;;;;;;;6176192;23;20071;-60
2023/11/14 11:55:16;;;;;;;1.63;1.52;;;;;;;;;;6174517;23;20028;-59
2023/11/14 11:58:09;;;;;;;1.83;1.38;;;;;;;;;;6172313;23;20024;-53
2023/11/14 12:01:08;;;;;;;1.27;1.17;;;;;;;;;;6174547;23;20129;-51
2023/11/14 12:04:02;;;;;;;1.88;1.13;;;;;;;;;;6174470;23;20032;-46
2023/11/14 12:07:03;;;;;;;1.17;1.08;;;;;;;;;;6174682;23;20028;-53
2023/11/14 12:09:51;;;;;;;1.08;0.98;;;;;;;;;;6173487;23;20021;-51
2023/11/14 12:12:34;;;;;;;1.10;1.00;;;;;;;;;;6151312;23;20029;-51
2023/11/14 12:15:04;;;;;;;1.85;1.30;;;;;;;;;;6172921;23;20021;-47
2023/11/14 12:17:38;;;;;;;1.33;1.23;;;;;;;;;;6176108;23;20029;-61
2023/11/14 12:20:09;;;;;;;1.30;1.20;;;;;;;;;;6175535;23;20075;-61
2023/11/14 12:22:39;;;;;;;1.27;1.00;;;;;;;;;;6174566;23;20095;-61
2023/11/14 12:25:13;;;;;;;1.20;1.10;;;;;;;;;;6173581;23;20025;-60
2023/11/14 12:27:41;;;;;;;;;;;;;;;;;;6176284;23;20021;-65
2023/11/14 12:30:09;;;;;;;1.02;0.93;;;;;;;;;;6174010;23;19928;-58
2023/11/14 12:32:45;;;;;;;1.17;0.98;;;;;;;;;;6150541;23;20024;-58
2023/11/14 12:35:12;;;;;;;;;;;;;;;;;;6174680;23;20132;-58
2023/11/14 12:37:48;;;;;;;5.82;1.40;;;;;;;;;;6175475;23;19943;-59
2023/11/14 12:40:19;;;;;;;1.30;1.20;;;;;;;;;;6175517;23;20025;-59
2023/11/14 12:42:54;;;;;;;1.60;1.08;;;;;;;;;;6173919;23;20096;-59
2023/11/14 12:45:21;;;;;;;1.95;1.10;;;;;;;;;;6174815;23;20667;-61
2023/11/14 12:47:58;;;;;;;1.52;1.08;;;;;;;;;;6175422;23;20024;-49
2023/11/14 12:50:25;;;;;;;0.95;0.90;;;;;;;;;;6174796;23;20017;-54
2023/11/14 12:52:53;;;;;;;1.15;1.02;;;;;;;;;;6174814;23;20041;-52
2023/11/14 12:55:26;;;;;;;1.33;1.17;;;;;;;;;;6172986;23;20028;-51
2023/11/14 12:58:00;;;;;;;1.38;0.80;;;;;;;;;;6175134;23;20091;-52
2023/11/14 13:00:47;;;;;;;1.00;0.90;;;;;;;;;;6171570;23;20083;-52
2023/11/14 13:03:21;;;;;;;3.40;0.70;;;;;;;;;;6175570;23;20362;-60
2023/11/14 13:05:55;;;;;;;0.80;0.80;;;;;;;;;;6174117;23;20028;-51
2023/11/14 13:08:49;;;;;;;1.13;0.65;;;;;;;;;;6176371;23;20460;-53
2023/11/14 13:11:36;;;;;;;0.75;0.75;;;;;;;;;;6176142;23;20021;-55
2023/11/14 13:14:30;;;;;;;0.90;0.80;;;;;;;;;;6176305;23;20025;-59
2023/11/14 13:17:17;;;;;;;2.80;0.70;;;;;;;;;;6175779;23;20075;-54
2023/11/14 13:20:11;;;;;;;0.60;0.57;;;;;;;;;;6173816;23;20103;-54
2023/11/14 13:23:00;;;;;;;0.95;0.85;;;;;;;;;;6175996;23;20108;-50
2023/11/14 13:25:52;;;;;;;2.45;0.80;;;;;;;;;;6176594;23;20017;-61
2023/11/14 13:28:40;;;;;;;0.70;0.70;;;;;;;;;;6174785;23;20044;-61
2023/11/14 13:31:34;;;;;;;1.23;1.00;;;;;;;;;;6175668;23;20497;-62
2023/11/14 13:34:27;;;;;;;1.50;1.10;;;;;;;;;;6176552;23;20025;-62
2023/11/14 13:37:15;;;;;;;1.00;0.90;;;;;;;;;;6177298;23;20025;-62
2023/11/14 13:40:10;;;;;;;1.20;0.90;;;;;;;;;;6175269;23;20549;-52
2023/11/14 13:42:43;;;;;;;1.02;0.80;;;;;;;;;;6176081;23;20021;-52
2023/11/14 13:45:18;;;;;;;0.65;0.45;;;;;;;;;;6176507;23;20032;-53
2023/11/14 13:48:04;;;;;;;0.75;0.60;;;;;;;;;;6172932;23;20021;-51
2023/11/14 13:50:59;;;;;;;1.00;0.70;;;;;;;;;;6174483;23;20406;-52
2023/11/14 13:53:45;;;;;;;0.63;0.60;;;;;;;;;;6175455;23;20673;-50
2023/11/14 13:56:41;;;;;;;1.52;0.80;;;;;;;;;;6175725;23;20561;-48
2023/11/14 13:59:27;;;;;;;1.52;0.70;;;;;;;;;;6173206;23;20025;-59
2023/11/14 14:02:22;;;;;;;1.23;1.08;;;;;;;;;;6177151;23;20028;-60
2023/11/14 14:05:14;;;;;;;1.02;0.93;;;;;;;;;;6174174;23;20022;-60
2023/11/14 14:08:09;;;;;;;1.27;1.13;;;;;;;;;;6174846;23;20028;-59
2023/11/14 14:10:55;;;;;;;4.45;1.10;;;;;;;;;;6173369;23;20029;-60
2023/11/14 14:13:48;;;;;;;1.35;1.00;;;;;;;;;;6176322;23;20020;-60
2023/11/14 14:16:35;;;;;;;1.20;0.82;;;;;;;;;;6174161;23;20025;-59
2023/11/14 14:19:30;;;;;;;2.00;1.10;;;;;;;;;;6173639;23;20521;-60
2023/11/14 14:22:17;;;;;;;2.70;1.13;;;;;;;;;;6173887;23;20329;-60
2023/11/14 14:25:10;;;;;;;2.05;1.10;;;;;;;;;;6173901;23;20021;-60
2023/11/14 14:27:37;;;;;;;2.47;1.00;;;;;;;;;;6173582;23;20345;-60
2023/11/14 14:30:05;;;;;;;1.25;1.15;;;;;;;;;;6175865;23;20084;-60
2023/11/14 14:32:59;;;;;;;2.03;1.10;;;;;;;;;;6174821;23;20406;-60
2023/11/14 14:35:47;;;;;;;1.70;1.05;;;;;;;;;;6165602;23;20530;-60
2023/11/14 14:38:40;;;;;;;1.27;1.17;;;;;;;;;;6175805;23;20076;-58
2023/11/14 14:41:35;;;;;;;2.88;1.30;;;;;;;;;;6174506;23;20029;-59
2023/11/14 14:44:24;;;;;;;1.48;1.20;;;;;;;;;;6174463;23;20025;-58
2023/11/14 14:47:15;;;;;;;2.05;1.38;;;;;;;;;;6175962;23;20048;-58
2023/11/14 14:50:05;;;;;;;1.27;1.15;;;;;;;;;;6175900;23;20083;-58
2023/11/14 14:52:57;;;;;;;3.53;1.50;;;;;;;;;;6175175;23;20659;-51
2023/11/14 14:55:51;;;;;;;2.75;1.23;;;;;;;;;;6174259;23;20021;-60
2023/11/14 14:58:39;;;;;;;4.50;1.17;;;;;;;;;;6176669;23;20028;-66
2023/11/14 15:01:33;;;;;;;4.80;1.42;;;;;;;;;;6174304;23;20410;-64
2023/11/14 15:04:29;;;;;;;1.42;1.10;;;;;;;;;;6165111;23;20095;-64
2023/11/14 15:07:28;;;;;;;4.53;1.20;;;;;;;;;;6171175;23;20421;-64
2023/11/14 15:10:18;;;;;;;1.10;1.00;;;;;;;;;;6174800;23;20029;-65
2023/11/14 15:13:11;;;;;;;1.00;0.88;;;;;;;;;;6174093;23;20028;-59
2023/11/14 15:15:42;;;;;;;;;;;;;;;;;;6172911;23;20481;-64
2023/11/14 15:18:09;;;;;;;1.33;1.20;;;;;;;;;;6173718;23;19916;-65
2023/11/14 15:20:46;;;;;;;2.88;1.52;;;;;;;;;;6175129;23;20028;-65
2023/11/14 15:23:13;;;;;;;3.33;1.27;;;;;;;;;;6174200;23;20032;-65
2023/11/14 15:25:43;;;;;;;1.38;1.25;;;;;;;;;;6174230;23;20025;-67
2023/11/14 15:28:17;;;;;;;4.10;1.10;;;;;;;;;;6172969;23;20029;-66
2023/11/14 15:30:45;;;;;;;1.50;1.40;;;;;;;;;;6173222;23;20617;-60
2023/11/14 15:33:13;;;;;;;4.30;1.40;;;;;;;;;;6168243;23;20032;-59
2023/11/14 15:35:51;;;;;;;1.13;1.00;;;;;;;;;;6169009;23;20471;-59
2023/11/14 15:38:38;;;;;;;2.10;1.73;;;;;;;;;;6173743;23;20025;-59
2023/11/14 15:41:32;;;;;;;2.25;1.33;;;;;;;;;;6174866;23;20402;-59
2023/11/14 15:44:19;;;;;;;3.00;1.58;;;;;;;;;;6171021;23;20017;-59
2023/11/14 15:47:14;;;;;;;2.17;1.38;;;;;;;;;;6175060;23;20527;-59
2023/11/14 15:50:01;;;;;;;4.35;1.60;;;;;;;;;;6172298;23;20081;-58
2023/11/14 15:52:54;;;;;;;2.75;1.80;;;;;;;;;;6174088;23;20116;-61
2023/11/14 15:55:41;;;;;;;2.95;1.60;;;;;;;;;;6174142;23;20017;-62
2023/11/14 15:58:35;;;;;;;1.73;1.42;;;;;;;;;;6174059;23;20021;-61
2023/11/14 16:01:24;;;;;;;2.58;1.55;;;;;;;;;;6172397;23;20053;-61
2023/11/14 16:04:23;;;;;;;2.30;1.52;;;;;;;;;;6170775;23;20025;-62
2023/11/14 16:06:57;;;;;;;3.05;1.90;;;;;;;;;;6174113;23;20076;-61
2023/11/14 16:09:50;;;;;;;2.30;1.65;;;;;;;;;;6172944;23;20025;-68
2023/11/14 16:12:37;;;;;;;2.33;1.58;;;;;;;;;;6174139;23;20025;-67
2023/11/14 16:15:31;;;;;;;3.83;2.00;;;;;;;;;;6175105;23;20123;-67
2023/11/14 16:18:01;;;;;;;2.08;1.48;;;;;;;;;;6174769;23;20025;-67
2023/11/14 16:20:55;;;;;;;3.60;1.70;;;;;;;;;;6173900;23;20025;-67
2023/11/14 16:23:50;;;;;;;4.95;1.65;;;;;;;;;;6171795;23;20025;-67
2023/11/14 16:26:36;;;;;;;2.20;1.92;;;;;;;;;;6163958;23;20029;-47
2023/11/14 16:29:30;;;;;;;2.20;1.45;;;;;;;;;;6174434;23;20021;-64
2023/11/14 16:32:20;;;;;;;3.28;1.88;;;;;;;;;;6172978;23;20080;-65
2023/11/14 16:35:11;;;;;;;2.20;1.60;;;;;;;;;;6173024;23;20029;-64